Time;durP1;ratioP1;P1;durP2;ratioP2;P2;SDS_P1;SDS_P2;PMS_P1;PMS_P2;Temp;Humidity;BMP_temperature;BMP_pressure;BME280_temperature;BME280_humidity;BME280_pressure;Samples;Min_cycle;Max_cycle;Signal;HPM_P1;HPM_P2
2022/08/13 03:05:50;;;;;;;1999.90;999.90;;;;;;;;;;6029446;23;21068;-69
2022/08/13 03:08:36;;;;;;;1999.90;999.90;;;;;;;;;;5022756;28;20312;-69
2022/08/13 03:11:21;;;;;;;1999.90;999.90;;;;;;;;;;5015192;28;20205;-68
2022/08/13 03:14:08;;;;;;;1999.90;999.90;;;;;;;;;;5020842;28;20213;-69
2022/08/13 03:16:53;;;;;;;1999.90;999.90;;;;;;;;;;4999912;28;20305;-69
2022/08/13 03:19:38;;;;;;;1999.90;999.90;;;;;;;;;;5001179;28;20210;-68
2022/08/13 03:22:25;;;;;;;1999.90;999.90;;;;;;;;;;5009356;28;20201;-69
2022/08/13 03:25:10;;;;;;;1999.90;999.90;;;;;;;;;;5003106;28;20236;-68
2022/08/13 03:27:55;;;;;;;1999.90;999.90;;;;;;;;;;5007455;28;20351;-69
2022/08/13 03:30:41;;;;;;;1999.90;999.90;;;;;;;;;;5010461;28;20220;-69
2022/08/13 03:33:27;;;;;;;1999.90;999.90;;;;;;;;;;5002206;28;20563;-69
2022/08/13 03:36:14;;;;;;;1999.90;999.90;;;;;;;;;;5002990;28;20294;-69
2022/08/13 03:39:01;;;;;;;1999.90;999.90;;;;;;;;;;5014379;28;20254;-69
2022/08/13 03:41:46;;;;;;;1999.90;999.90;;;;;;;;;;5015195;28;20211;-69
2022/08/13 03:44:31;;;;;;;1999.90;999.90;;;;;;;;;;5012303;28;20252;-69
2022/08/13 03:47:16;;;;;;;1999.90;999.90;;;;;;;;;;5005384;28;20232;-69
2022/08/13 03:50:01;;;;;;;1999.90;999.90;;;;;;;;;;5007444;28;20473;-69
2022/08/13 03:52:47;;;;;;;1999.90;999.90;;;;;;;;;;5013410;28;20217;-69
2022/08/13 03:55:34;;;;;;;1999.90;999.90;;;;;;;;;;5003021;28;20202;-69
2022/08/13 03:58:20;;;;;;;1999.90;999.90;;;;;;;;;;4997996;28;20221;-70
2022/08/13 04:01:05;;;;;;;1999.90;999.90;;;;;;;;;;5005706;28;20213;-69
2022/08/13 04:03:50;;;;;;;1999.90;999.90;;;;;;;;;;5006937;28;20208;-69
2022/08/13 04:06:36;;;;;;;1999.90;999.90;;;;;;;;;;5005047;28;20351;-69
2022/08/13 04:09:21;;;;;;;1999.90;999.90;;;;;;;;;;5011081;28;20443;-69
2022/08/13 04:12:10;;;;;;;1999.90;999.90;;;;;;;;;;5014272;28;20222;-69
2022/08/13 04:14:55;;;;;;;1999.90;999.90;;;;;;;;;;5011722;28;20261;-69
2022/08/13 04:17:40;;;;;;;1999.90;999.90;;;;;;;;;;5013814;28;20602;-69
2022/08/13 04:20:25;;;;;;;1999.90;999.90;;;;;;;;;;5013744;28;20814;-69
2022/08/13 04:23:14;;;;;;;1999.90;999.90;;;;;;;;;;5012464;28;20220;-69
2022/08/13 04:25:59;;;;;;;1999.90;999.90;;;;;;;;;;5007493;28;20290;-69
2022/08/13 04:28:46;;;;;;;1999.90;999.90;;;;;;;;;;5004869;28;20276;-68
2022/08/13 04:31:31;;;;;;;1999.90;999.90;;;;;;;;;;5003846;28;20274;-69
2022/08/13 04:34:19;;;;;;;1999.90;999.90;;;;;;;;;;5014111;28;20220;-68
2022/08/13 04:37:05;;;;;;;1999.90;999.90;;;;;;;;;;5013070;28;20229;-69
2022/08/13 04:39:50;;;;;;;1999.90;999.90;;;;;;;;;;4997434;28;20250;-69
2022/08/13 04:42:49;;;;;;;1999.90;999.90;;;;;;;;;;5014111;28;20219;-69
2022/08/13 04:45:36;;;;;;;1999.90;999.90;;;;;;;;;;5011974;28;20447;-71
2022/08/13 04:48:21;;;;;;;1999.90;999.90;;;;;;;;;;5012892;28;20212;-70
2022/08/13 04:51:06;;;;;;;1999.90;999.90;;;;;;;;;;5012809;28;20303;-69
2022/08/13 04:53:51;;;;;;;1999.90;999.90;;;;;;;;;;5004938;28;20668;-69
2022/08/13 04:56:36;;;;;;;1999.90;999.90;;;;;;;;;;5013580;28;20247;-70
2022/08/13 04:59:22;;;;;;;1999.90;999.90;;;;;;;;;;5006621;28;20219;-69
2022/08/13 05:02:08;;;;;;;1999.90;999.90;;;;;;;;;;5010987;28;20620;-69
2022/08/13 05:04:54;;;;;;;1999.90;999.90;;;;;;;;;;5005702;28;20773;-69
2022/08/13 05:07:39;;;;;;;1999.90;999.90;;;;;;;;;;5011713;28;20239;-71
2022/08/13 05:10:25;;;;;;;1999.90;999.90;;;;;;;;;;5010149;28;20204;-69
2022/08/13 05:13:20;;;;;;;1999.90;999.90;;;;;;;;;;5013529;28;20693;-69
2022/08/13 05:16:07;;;;;;;1999.90;999.90;;;;;;;;;;5012304;28;20307;-69
2022/08/13 05:18:54;;;;;;;1999.90;999.90;;;;;;;;;;5011827;28;20589;-69
2022/08/13 05:21:41;;;;;;;1999.90;999.90;;;;;;;;;;5013387;28;20262;-68
2022/08/13 05:24:26;;;;;;;1999.90;999.90;;;;;;;;;;5011694;28;20216;-69
2022/08/13 05:27:11;;;;;;;1999.90;999.90;;;;;;;;;;5012039;28;20745;-68
2022/08/13 05:29:57;;;;;;;1999.90;999.90;;;;;;;;;;5008623;28;20212;-69
2022/08/13 05:32:42;;;;;;;1999.90;999.90;;;;;;;;;;5013109;28;20701;-69
2022/08/13 05:35:28;;;;;;;1999.90;999.90;;;;;;;;;;5011160;28;20212;-69
2022/08/13 05:38:14;;;;;;;1999.90;999.90;;;;;;;;;;5007698;28;20232;-69
2022/08/13 05:41:00;;;;;;;1999.90;999.90;;;;;;;;;;5012713;28;20462;-69
2022/08/13 05:43:47;;;;;;;1999.90;999.90;;;;;;;;;;5011907;28;20565;-70
2022/08/13 05:46:32;;;;;;;1999.90;999.90;;;;;;;;;;5012464;28;20316;-69
2022/08/13 05:49:17;;;;;;;1999.90;999.90;;;;;;;;;;5008202;28;20214;-69
2022/08/13 05:52:04;;;;;;;1999.90;999.90;;;;;;;;;;5008139;28;20321;-70
2022/08/13 05:54:51;;;;;;;1999.90;999.90;;;;;;;;;;5001855;28;20584;-70
2022/08/13 05:57:35;;;;;;;1999.90;999.90;;;;;;;;;;5008177;28;20238;-69
2022/08/13 06:03:25;;;;;;;1999.90;999.90;;;;;;;;;;5009447;28;20291;-69
2022/08/13 06:06:11;;;;;;;1999.90;999.90;;;;;;;;;;5011989;28;20238;-69
2022/08/13 06:08:59;;;;;;;1999.90;999.90;;;;;;;;;;5011698;28;20250;-69
2022/08/13 06:11:44;;;;;;;1999.90;999.90;;;;;;;;;;5012484;28;20210;-69
2022/08/13 06:14:34;;;;;;;1999.90;999.90;;;;;;;;;;5012463;28;20254;-69
2022/08/13 06:17:19;;;;;;;1999.90;999.90;;;;;;;;;;5012268;28;20235;-70
2022/08/13 06:20:05;;;;;;;1999.90;999.90;;;;;;;;;;5012065;28;20337;-69
2022/08/13 06:22:52;;;;;;;1999.90;999.90;;;;;;;;;;5012305;28;20208;-69
2022/08/13 06:25:39;;;;;;;1999.90;999.90;;;;;;;;;;5012129;28;20229;-68
2022/08/13 06:28:25;;;;;;;1999.90;999.90;;;;;;;;;;5011532;28;20246;-69
2022/08/13 06:31:13;;;;;;;1999.90;999.90;;;;;;;;;;5012282;28;20215;-69
2022/08/13 06:33:58;;;;;;;1999.90;999.90;;;;;;;;;;5012138;28;20205;-69
2022/08/13 06:36:43;;;;;;;1999.90;999.90;;;;;;;;;;5011566;28;20412;-68
2022/08/13 06:39:28;;;;;;;1999.90;999.90;;;;;;;;;;5000766;28;20215;-70
2022/08/13 06:42:14;;;;;;;1999.90;999.90;;;;;;;;;;4992172;28;20203;-69
2022/08/13 06:45:00;;;;;;;1999.90;999.90;;;;;;;;;;5005976;28;20210;-70
2022/08/13 06:47:45;;;;;;;1999.90;999.90;;;;;;;;;;5009197;28;20231;-69
2022/08/13 06:50:34;;;;;;;1999.90;999.90;;;;;;;;;;5009690;28;20330;-69
2022/08/13 06:53:20;;;;;;;1999.90;999.90;;;;;;;;;;5010014;28;20574;-69
2022/08/13 06:56:06;;;;;;;1999.90;999.90;;;;;;;;;;5013895;28;20259;-69
2022/08/13 06:58:52;;;;;;;1999.90;999.90;;;;;;;;;;5007345;28;20209;-69
2022/08/13 07:01:39;;;;;;;1999.90;999.90;;;;;;;;;;5010922;28;20435;-69
2022/08/13 07:04:25;;;;;;;1999.90;999.90;;;;;;;;;;5012497;28;20285;-69
2022/08/13 07:07:10;;;;;;;1999.90;999.90;;;;;;;;;;5004313;28;20727;-69
2022/08/13 07:09:55;;;;;;;1999.90;999.90;;;;;;;;;;5001626;28;20566;-70
2022/08/13 07:12:42;;;;;;;1999.90;999.90;;;;;;;;;;4995838;28;20289;-69
2022/08/13 07:15:29;;;;;;;1999.90;999.90;;;;;;;;;;5013274;28;20206;-69
2022/08/13 07:18:14;;;;;;;1999.90;999.90;;;;;;;;;;4994013;28;20211;-69
2022/08/13 07:20:59;;;;;;;1999.90;999.90;;;;;;;;;;4994793;28;20574;-67
2022/08/13 07:23:44;;;;;;;1999.90;999.90;;;;;;;;;;4995404;28;20254;-70
2022/08/13 07:26:30;;;;;;;1999.90;999.90;;;;;;;;;;5002333;28;20227;-69
2022/08/13 07:29:18;;;;;;;1999.90;999.90;;;;;;;;;;5013643;28;20218;-69
2022/08/13 07:32:06;;;;;;;1999.90;999.90;;;;;;;;;;5009178;28;20215;-68
2022/08/13 07:34:52;;;;;;;1999.90;999.90;;;;;;;;;;5009302;28;20581;-69
2022/08/13 07:37:37;;;;;;;1999.90;999.90;;;;;;;;;;5013219;28;20234;-67
2022/08/13 07:40:22;;;;;;;1999.90;999.90;;;;;;;;;;5014750;28;20693;-69
2022/08/13 07:43:07;;;;;;;1999.90;999.90;;;;;;;;;;5014838;28;20209;-68
2022/08/13 07:46:00;;;;;;;1999.90;999.90;;;;;;;;;;5013709;28;20297;-68
2022/08/13 07:48:49;;;;;;;1999.90;999.90;;;;;;;;;;5013817;28;20266;-69
2022/08/13 07:51:37;;;;;;;1999.90;999.90;;;;;;;;;;4995336;28;20207;-68
2022/08/13 07:54:22;;;;;;;1999.90;999.90;;;;;;;;;;5011433;28;20439;-68
2022/08/13 07:57:08;;;;;;;1999.90;999.90;;;;;;;;;;5008177;28;20230;-70
2022/08/13 07:59:53;;;;;;;1999.90;999.90;;;;;;;;;;5006678;28;20211;-69
2022/08/13 08:02:39;;;;;;;1999.90;999.90;;;;;;;;;;5012848;28;20214;-68
2022/08/13 08:05:25;;;;;;;1999.90;999.90;;;;;;;;;;5010938;28;20237;-69
2022/08/13 08:08:11;;;;;;;1999.90;999.90;;;;;;;;;;5013306;28;20226;-69
2022/08/13 08:10:56;;;;;;;1999.90;999.90;;;;;;;;;;5013285;28;20203;-69
2022/08/13 08:13:40;;;;;;;1999.90;999.90;;;;;;;;;;5013468;28;20210;-68
2022/08/13 08:16:27;;;;;;;1999.90;999.90;;;;;;;;;;5006194;28;20241;-69
2022/08/13 08:19:13;;;;;;;1999.90;999.90;;;;;;;;;;5013350;28;20217;-70
2022/08/13 08:21:59;;;;;;;1999.90;999.90;;;;;;;;;;5004330;28;20255;-69
2022/08/13 08:24:48;;;;;;;1999.90;999.90;;;;;;;;;;5007049;28;20214;-68
2022/08/13 08:27:33;;;;;;;1999.90;999.90;;;;;;;;;;5008322;28;20239;-70
2022/08/13 08:30:19;;;;;;;1999.90;999.90;;;;;;;;;;5009352;28;20930;-68
2022/08/13 08:33:04;;;;;;;1999.90;999.90;;;;;;;;;;5013178;28;20210;-69
2022/08/13 08:35:49;;;;;;;1999.90;999.90;;;;;;;;;;5005800;28;20210;-69
2022/08/13 08:44:57;;;;;;;1999.90;999.90;;;;;;;;;;5003018;28;20226;-69
2022/08/13 08:47:42;;;;;;;1999.90;999.90;;;;;;;;;;5003641;28;20238;-69
2022/08/13 08:50:27;;;;;;;1999.90;999.90;;;;;;;;;;5012850;28;20214;-70
2022/08/13 08:53:22;;;;;;;1999.90;999.90;;;;;;;;;;5010185;28;20215;-69
2022/08/13 08:56:09;;;;;;;1999.90;999.90;;;;;;;;;;5007051;28;20241;-70
2022/08/13 08:58:57;;;;;;;1999.90;999.90;;;;;;;;;;5005357;28;20206;-70
2022/08/13 09:01:42;;;;;;;1999.90;999.90;;;;;;;;;;5011267;28;20223;-68
2022/08/13 09:04:28;;;;;;;1999.90;999.90;;;;;;;;;;5012807;28;20202;-69
2022/08/13 09:07:13;;;;;;;1999.90;999.90;;;;;;;;;;5012679;28;20597;-68
2022/08/13 09:09:59;;;;;;;1999.90;999.90;;;;;;;;;;4996652;28;20729;-71
2022/08/13 09:12:46;;;;;;;1999.90;999.90;;;;;;;;;;5005052;28;20370;-70
2022/08/13 09:15:34;;;;;;;1999.90;999.90;;;;;;;;;;5008858;28;20337;-69
2022/08/13 09:18:19;;;;;;;1999.90;999.90;;;;;;;;;;5006930;28;20202;-68
2022/08/13 09:21:04;;;;;;;1999.90;999.90;;;;;;;;;;5012716;28;20341;-69
2022/08/13 09:23:49;;;;;;;1999.90;999.90;;;;;;;;;;5010572;28;20197;-69
2022/08/13 09:26:34;;;;;;;1999.90;999.90;;;;;;;;;;5001867;28;20354;-69
2022/08/13 09:29:23;;;;;;;1999.90;999.90;;;;;;;;;;5005897;28;20206;-73
2022/08/13 09:32:08;;;;;;;1999.90;999.90;;;;;;;;;;5013033;28;20222;-73
2022/08/13 09:34:53;;;;;;;1999.90;999.90;;;;;;;;;;5012870;28;20709;-73
2022/08/13 09:37:40;;;;;;;1999.90;999.90;;;;;;;;;;5012347;28;20414;-73
2022/08/13 09:40:26;;;;;;;1999.90;999.90;;;;;;;;;;5013096;28;20302;-73
2022/08/13 09:43:14;;;;;;;1999.90;999.90;;;;;;;;;;5007943;28;20704;-72
2022/08/13 09:46:02;;;;;;;1999.90;999.90;;;;;;;;;;5012049;28;20746;-73
2022/08/13 09:48:47;;;;;;;1999.90;999.90;;;;;;;;;;5012084;28;20329;-74
2022/08/13 09:51:33;;;;;;;1999.90;999.90;;;;;;;;;;5012775;28;20341;-73
2022/08/13 09:54:18;;;;;;;1999.90;999.90;;;;;;;;;;5012929;28;20213;-72
2022/08/13 09:57:03;;;;;;;1999.90;999.90;;;;;;;;;;5011334;28;20265;-73
2022/08/13 09:59:48;;;;;;;1999.90;999.90;;;;;;;;;;4999074;28;20211;-71
2022/08/13 10:02:35;;;;;;;1999.90;999.90;;;;;;;;;;5010542;28;20337;-71
2022/08/13 10:05:20;;;;;;;1999.90;999.90;;;;;;;;;;5012900;28;20207;-70
2022/08/13 10:08:06;;;;;;;1999.90;999.90;;;;;;;;;;5012243;28;20229;-71
2022/08/13 10:10:51;;;;;;;1999.90;999.90;;;;;;;;;;5003147;28;20817;-70
2022/08/13 10:13:36;;;;;;;1999.90;999.90;;;;;;;;;;5002912;28;20219;-72
2022/08/13 10:16:21;;;;;;;1999.90;999.90;;;;;;;;;;5009897;28;20226;-71
2022/08/13 10:19:08;;;;;;;1999.90;999.90;;;;;;;;;;5002478;28;20707;-72
2022/08/13 10:21:53;;;;;;;1999.90;999.90;;;;;;;;;;5009615;28;20218;-71
2022/08/13 10:24:38;;;;;;;1999.90;999.90;;;;;;;;;;5002692;28;20301;-72
2022/08/13 10:27:23;;;;;;;1999.90;999.90;;;;;;;;;;5008319;28;20238;-70
2022/08/13 10:30:08;;;;;;;1999.90;999.90;;;;;;;;;;5011549;28;20258;-72
2022/08/13 10:32:55;;;;;;;1999.90;999.90;;;;;;;;;;5010555;28;20581;-71
2022/08/13 10:35:41;;;;;;;1999.90;999.90;;;;;;;;;;5010155;28;20214;-70
2022/08/13 10:38:27;;;;;;;1999.90;999.90;;;;;;;;;;5007175;28;20191;-72
2022/08/13 10:41:12;;;;;;;1999.90;999.90;;;;;;;;;;5008598;28;20786;-74
2022/08/13 10:43:59;;;;;;;1999.90;999.90;;;;;;;;;;5011632;28;20606;-73
2022/08/13 10:46:45;;;;;;;1999.90;999.90;;;;;;;;;;5006127;28;20306;-71
2022/08/13 10:49:31;;;;;;;1999.90;999.90;;;;;;;;;;5009128;28;20210;-72
2022/08/13 10:52:19;;;;;;;1999.90;999.90;;;;;;;;;;5002530;28;20214;-72
2022/08/13 10:55:05;;;;;;;1999.90;999.90;;;;;;;;;;5008039;28;20210;-72
2022/08/13 10:57:50;;;;;;;1999.90;999.90;;;;;;;;;;5001605;28;20230;-71
2022/08/13 11:00:35;;;;;;;1999.90;999.90;;;;;;;;;;5008648;28;20304;-73
2022/08/13 11:03:19;;;;;;;1999.90;999.90;;;;;;;;;;5007538;28;20211;-71
2022/08/13 11:06:05;;;;;;;1999.90;999.90;;;;;;;;;;5008304;28;20831;-72
2022/08/13 11:08:54;;;;;;;1999.90;999.90;;;;;;;;;;5006884;28;20231;-72
2022/08/13 11:11:39;;;;;;;1999.90;999.90;;;;;;;;;;5007932;28;20297;-72
2022/08/13 11:14:24;;;;;;;1999.90;999.90;;;;;;;;;;5005355;28;20218;-71
2022/08/13 11:17:11;;;;;;;1999.90;999.90;;;;;;;;;;5003842;28;20438;-72
2022/08/13 11:19:56;;;;;;;1999.90;999.90;;;;;;;;;;5002360;28;20225;-71
2022/08/13 11:22:41;;;;;;;1999.90;999.90;;;;;;;;;;5005143;28;20207;-72
2022/08/13 11:25:27;;;;;;;1999.90;999.90;;;;;;;;;;4996594;28;20297;-72
2022/08/13 11:28:13;;;;;;;1999.90;999.90;;;;;;;;;;5009072;28;20643;-72
2022/08/13 11:30:58;;;;;;;1999.90;999.90;;;;;;;;;;4997861;28;20214;-72
2022/08/13 11:33:43;;;;;;;1999.90;999.90;;;;;;;;;;5009229;28;20677;-72
2022/08/13 11:36:28;;;;;;;1999.90;999.90;;;;;;;;;;5007642;28;21105;-72
2022/08/13 11:39:13;;;;;;;1999.90;999.90;;;;;;;;;;5010165;28;20209;-72
2022/08/13 11:41:59;;;;;;;1999.90;999.90;;;;;;;;;;5007782;28;20211;-71
2022/08/13 11:44:44;;;;;;;1999.90;999.90;;;;;;;;;;5011967;28;20238;-72
2022/08/13 11:47:29;;;;;;;1999.90;999.90;;;;;;;;;;5001149;28;20697;-72
2022/08/13 11:50:14;;;;;;;1999.90;999.90;;;;;;;;;;5005488;28;20215;-72
2022/08/13 11:52:58;;;;;;;1999.90;999.90;;;;;;;;;;5013954;28;20206;-72
2022/08/13 11:55:43;;;;;;;1999.90;999.90;;;;;;;;;;5013570;28;20214;-71
2022/08/13 11:58:30;;;;;;;1999.90;999.90;;;;;;;;;;5013868;28;20554;-71
2022/08/13 12:01:18;;;;;;;1999.90;999.90;;;;;;;;;;5010750;28;20257;-72
2022/08/13 12:04:03;;;;;;;1999.90;999.90;;;;;;;;;;5006068;28;20760;-72
2022/08/13 12:06:48;;;;;;;1999.90;999.90;;;;;;;;;;5011814;28;20268;-72
2022/08/13 12:09:33;;;;;;;1999.90;999.90;;;;;;;;;;5012042;28;20285;-70
2022/08/13 12:12:18;;;;;;;1999.90;999.90;;;;;;;;;;5012519;28;20487;-72
2022/08/13 12:15:05;;;;;;;1999.90;999.90;;;;;;;;;;5008480;28;20206;-73
2022/08/13 12:17:50;;;;;;;1999.90;999.90;;;;;;;;;;5010049;28;20219;-72
2022/08/13 12:20:35;;;;;;;1999.90;999.90;;;;;;;;;;5010504;28;20213;-72
2022/08/13 12:23:20;;;;;;;1999.90;999.90;;;;;;;;;;5012916;28;20709;-73
2022/08/13 12:26:05;;;;;;;1999.90;999.90;;;;;;;;;;5011528;28;20301;-72
2022/08/13 12:28:50;;;;;;;1999.90;999.90;;;;;;;;;;5007600;28;20230;-72
2022/08/13 12:31:36;;;;;;;1999.90;999.90;;;;;;;;;;5013312;28;20409;-72
2022/08/13 12:34:21;;;;;;;1999.90;999.90;;;;;;;;;;5014269;28;20202;-73
2022/08/13 12:37:06;;;;;;;1999.90;999.90;;;;;;;;;;5013595;28;20226;-73
2022/08/13 12:39:51;;;;;;;1999.90;999.90;;;;;;;;;;5004575;28;20214;-71
2022/08/13 12:42:36;;;;;;;1999.90;999.90;;;;;;;;;;5012955;28;20286;-71
2022/08/13 12:45:21;;;;;;;1999.90;999.90;;;;;;;;;;5012192;28;20207;-73
2022/08/13 12:48:08;;;;;;;1999.90;999.90;;;;;;;;;;5013064;28;20301;-72
2022/08/13 12:50:53;;;;;;;1999.90;999.90;;;;;;;;;;5008202;28;20215;-73
2022/08/13 12:53:38;;;;;;;1999.90;999.90;;;;;;;;;;5009143;28;20339;-71
2022/08/13 12:56:24;;;;;;;1999.90;999.90;;;;;;;;;;5013258;28;20326;-72
2022/08/13 12:59:09;;;;;;;1999.90;999.90;;;;;;;;;;5002999;28;20230;-72
2022/08/13 13:01:54;;;;;;;1999.90;999.90;;;;;;;;;;5001172;28;20337;-70
2022/08/13 13:04:43;;;;;;;1999.90;999.90;;;;;;;;;;5013214;28;20210;-72
2022/08/13 13:07:28;;;;;;;1999.90;999.90;;;;;;;;;;5023187;28;20456;-71
2022/08/13 13:10:13;;;;;;;1999.90;999.90;;;;;;;;;;5006416;28;20255;-71
2022/08/13 13:12:58;;;;;;;1999.90;999.90;;;;;;;;;;5006744;28;20202;-73
2022/08/13 13:15:44;;;;;;;1999.90;999.90;;;;;;;;;;5012256;28;20203;-71
2022/08/13 13:18:29;;;;;;;1999.90;999.90;;;;;;;;;;5012487;28;20211;-72
2022/08/13 13:21:16;;;;;;;1999.90;999.90;;;;;;;;;;5014250;28;20285;-73
2022/08/13 13:24:01;;;;;;;1999.90;999.90;;;;;;;;;;5006609;28;20206;-71
2022/08/13 13:26:47;;;;;;;1999.90;999.90;;;;;;;;;;4997607;28;20448;-72
2022/08/13 13:29:35;;;;;;;1999.90;999.90;;;;;;;;;;5006921;28;20230;-72
2022/08/13 13:32:20;;;;;;;1999.90;999.90;;;;;;;;;;5016546;28;20214;-72
2022/08/13 13:35:05;;;;;;;1999.90;999.90;;;;;;;;;;5011469;28;20203;-72
2022/08/13 13:37:52;;;;;;;1999.90;999.90;;;;;;;;;;5005573;28;20767;-73
2022/08/13 13:40:38;;;;;;;1999.90;999.90;;;;;;;;;;5009325;28;20215;-72
2022/08/13 13:43:24;;;;;;;1999.90;999.90;;;;;;;;;;5006416;28;20704;-73
2022/08/13 13:46:10;;;;;;;1999.90;999.90;;;;;;;;;;5025006;28;20724;-73
2022/08/13 13:48:54;;;;;;;1999.90;999.90;;;;;;;;;;5008973;28;20308;-72
2022/08/13 13:51:39;;;;;;;1999.90;999.90;;;;;;;;;;5005693;28;20210;-71
2022/08/13 13:54:26;;;;;;;1999.90;999.90;;;;;;;;;;5005040;28;20580;-72
2022/08/13 13:57:11;;;;;;;1999.90;999.90;;;;;;;;;;5005947;28;20334;-70
2022/08/13 13:59:56;;;;;;;1999.90;999.90;;;;;;;;;;4998968;28;20254;-71
2022/08/13 14:02:47;;;;;;;1999.90;999.90;;;;;;;;;;5004988;28;20942;-71
2022/08/13 14:05:32;;;;;;;1999.90;999.90;;;;;;;;;;5007287;28;20342;-71
2022/08/13 14:08:18;;;;;;;1999.90;999.90;;;;;;;;;;5015243;28;20308;-73
2022/08/13 14:11:04;;;;;;;1999.90;999.90;;;;;;;;;;5006682;28;20210;-74
2022/08/13 14:13:50;;;;;;;1999.90;999.90;;;;;;;;;;5010819;28;20214;-73
2022/08/13 14:16:36;;;;;;;1999.90;999.90;;;;;;;;;;5011560;28;20240;-71
2022/08/13 14:19:22;;;;;;;1999.90;999.90;;;;;;;;;;5005283;28;20289;-72
2022/08/13 14:22:07;;;;;;;1999.90;999.90;;;;;;;;;;5007713;28;20206;-72
2022/08/13 14:24:53;;;;;;;1999.90;999.90;;;;;;;;;;5001238;28;20421;-72
2022/08/13 14:27:41;;;;;;;1999.90;999.90;;;;;;;;;;5003759;28;20594;-72
2022/08/13 14:30:26;;;;;;;1999.90;999.90;;;;;;;;;;5012908;28;20211;-70
2022/08/13 14:33:12;;;;;;;1999.90;999.90;;;;;;;;;;5018067;28;20209;-71
2022/08/13 14:35:57;;;;;;;1999.90;999.90;;;;;;;;;;5011984;28;20724;-72
2022/08/13 14:38:41;;;;;;;1999.90;999.90;;;;;;;;;;4998769;28;20208;-70
2022/08/13 14:41:26;;;;;;;1999.90;999.90;;;;;;;;;;5009660;28;20215;-71
2022/08/13 14:44:13;;;;;;;1999.90;999.90;;;;;;;;;;5006986;28;20211;-73
2022/08/13 14:46:58;;;;;;;1999.90;999.90;;;;;;;;;;5004033;28;20233;-71
2022/08/13 14:49:43;;;;;;;1999.90;999.90;;;;;;;;;;5007948;28;20254;-74
2022/08/13 14:52:28;;;;;;;1999.90;999.90;;;;;;;;;;5009502;28;20214;-72
2022/08/13 14:55:14;;;;;;;1999.90;999.90;;;;;;;;;;5014790;28;20697;-73
2022/08/13 14:58:00;;;;;;;1999.90;999.90;;;;;;;;;;5003866;28;20224;-71
2022/08/13 15:00:47;;;;;;;1999.90;999.90;;;;;;;;;;5006473;28;20227;-74
2022/08/13 15:03:32;;;;;;;1999.90;999.90;;;;;;;;;;5007894;28;20219;-71
2022/08/13 15:06:20;;;;;;;1999.90;999.90;;;;;;;;;;5011734;28;20282;-71
2022/08/13 15:09:05;;;;;;;1999.90;999.90;;;;;;;;;;5002996;28;20714;-71
2022/08/13 15:11:50;;;;;;;1999.90;999.90;;;;;;;;;;4992218;28;20282;-71
2022/08/13 15:14:35;;;;;;;1999.90;999.90;;;;;;;;;;4995472;28;20214;-72
2022/08/13 15:17:22;;;;;;;1999.90;999.90;;;;;;;;;;5006791;28;20250;-71
2022/08/13 15:20:08;;;;;;;1999.90;999.90;;;;;;;;;;5002116;28;20420;-68
2022/08/13 15:22:53;;;;;;;1999.90;999.90;;;;;;;;;;5004929;28;20206;-73
2022/08/13 15:25:38;;;;;;;1999.90;999.90;;;;;;;;;;5006133;28;20597;-71
2022/08/13 15:28:23;;;;;;;1999.90;999.90;;;;;;;;;;5004495;28;20317;-70
2022/08/13 15:31:09;;;;;;;1999.90;999.90;;;;;;;;;;5009859;28;20601;-71
2022/08/13 15:33:55;;;;;;;1999.90;999.90;;;;;;;;;;5012850;28;20205;-71
2022/08/13 15:36:40;;;;;;;1999.90;999.90;;;;;;;;;;5015051;28;20226;-71
2022/08/13 15:39:25;;;;;;;1999.90;999.90;;;;;;;;;;5014661;28;20721;-72
2022/08/13 15:42:10;;;;;;;1999.90;999.90;;;;;;;;;;5014243;28;20194;-72
2022/08/13 15:44:56;;;;;;;1999.90;999.90;;;;;;;;;;5013419;28;20333;-73
2022/08/13 15:47:41;;;;;;;1999.90;999.90;;;;;;;;;;5004404;28;20439;-73
2022/08/13 15:50:28;;;;;;;1999.90;999.90;;;;;;;;;;5013575;28;20234;-71
2022/08/13 15:53:13;;;;;;;1999.90;999.90;;;;;;;;;;5012973;28;20509;-70
2022/08/13 15:55:59;;;;;;;1999.90;999.90;;;;;;;;;;5007919;28;20834;-72
2022/08/13 15:58:44;;;;;;;1999.90;999.90;;;;;;;;;;5013644;28;20207;-71
2022/08/13 16:01:29;;;;;;;1999.90;999.90;;;;;;;;;;5013315;28;20229;-71
2022/08/13 16:04:14;;;;;;;1999.90;999.90;;;;;;;;;;4997244;28;20580;-70
2022/08/13 16:07:03;;;;;;;1999.90;999.90;;;;;;;;;;5008904;28;20602;-70
2022/08/13 16:09:49;;;;;;;1999.90;999.90;;;;;;;;;;5009131;28;20732;-70
2022/08/13 16:12:34;;;;;;;1999.90;999.90;;;;;;;;;;5023213;28;20280;-70
2022/08/13 16:15:19;;;;;;;1999.90;999.90;;;;;;;;;;5016784;28;20480;-71
2022/08/13 16:18:06;;;;;;;1999.90;999.90;;;;;;;;;;5004851;28;20271;-72
2022/08/13 16:20:51;;;;;;;1999.90;999.90;;;;;;;;;;5000098;28;20259;-71
2022/08/13 16:23:37;;;;;;;1999.90;999.90;;;;;;;;;;5033364;28;20218;-71
2022/08/13 16:26:23;;;;;;;1999.90;999.90;;;;;;;;;;5014410;28;20355;-72
2022/08/13 16:29:08;;;;;;;1999.90;999.90;;;;;;;;;;5008045;28;20625;-72
2022/08/13 16:31:54;;;;;;;1999.90;999.90;;;;;;;;;;4994418;28;20215;-71
2022/08/13 16:34:42;;;;;;;1999.90;999.90;;;;;;;;;;5002474;28;20209;-71
2022/08/13 16:37:30;;;;;;;1999.90;999.90;;;;;;;;;;5013284;28;20350;-70
2022/08/13 16:40:18;;;;;;;1999.90;999.90;;;;;;;;;;5013733;28;20200;-71
2022/08/13 16:43:05;;;;;;;1999.90;999.90;;;;;;;;;;5009703;28;20212;-72
2022/08/13 16:45:51;;;;;;;1999.90;999.90;;;;;;;;;;5010727;28;20217;-70
2022/08/13 16:48:37;;;;;;;1999.90;999.90;;;;;;;;;;5002323;28;20215;-71
2022/08/13 16:51:23;;;;;;;1999.90;999.90;;;;;;;;;;5009493;28;20411;-72
2022/08/13 16:54:08;;;;;;;1999.90;999.90;;;;;;;;;;5012398;28;20214;-71
2022/08/13 16:56:54;;;;;;;1999.90;999.90;;;;;;;;;;5005911;28;20226;-72
2022/08/13 16:59:42;;;;;;;1999.90;999.90;;;;;;;;;;5011206;28;20255;-70
2022/08/13 17:09:10;;;;;;;1999.90;999.90;;;;;;;;;;5011266;28;20588;-72
2022/08/13 17:11:46;;;;;;;1999.90;999.90;;;;;;;;;;4983485;28;20198;-71
2022/08/13 17:14:33;;;;;;;1999.90;999.90;;;;;;;;;;5013553;28;20330;-70
2022/08/13 17:17:18;;;;;;;1999.90;999.90;;;;;;;;;;5013441;28;20357;-72
2022/08/13 17:20:03;;;;;;;1999.90;999.90;;;;;;;;;;5030017;28;20205;-70
2022/08/13 17:22:48;;;;;;;1999.90;999.90;;;;;;;;;;4997047;28;20291;-72
2022/08/13 17:25:34;;;;;;;1999.90;999.90;;;;;;;;;;5010872;28;20215;-71
2022/08/13 17:28:25;;;;;;;1999.90;999.90;;;;;;;;;;5012263;28;20214;-70
2022/08/13 17:31:12;;;;;;;1999.90;999.90;;;;;;;;;;5013247;28;20195;-71
2022/08/13 17:33:58;;;;;;;1999.90;999.90;;;;;;;;;;5010388;28;20269;-71
2022/08/13 17:36:45;;;;;;;1999.90;999.90;;;;;;;;;;5007901;28;20233;-71
2022/08/13 17:39:30;;;;;;;1999.90;999.90;;;;;;;;;;5009679;28;20215;-71
2022/08/13 17:42:15;;;;;;;1999.90;999.90;;;;;;;;;;5011731;28;20297;-72
2022/08/13 17:45:00;;;;;;;1999.90;999.90;;;;;;;;;;4993473;28;20284;-71
2022/08/13 17:47:47;;;;;;;1999.90;999.90;;;;;;;;;;5009575;28;20603;-71
2022/08/13 17:50:33;;;;;;;1999.90;999.90;;;;;;;;;;5008748;28;20721;-70
2022/08/13 17:53:20;;;;;;;1999.90;999.90;;;;;;;;;;5008982;28;20214;-71
2022/08/13 17:56:06;;;;;;;1999.90;999.90;;;;;;;;;;5011576;28;20233;-70
2022/08/13 17:58:50;;;;;;;1999.90;999.90;;;;;;;;;;5007254;28;20752;-70
2022/08/13 18:01:36;;;;;;;1999.90;999.90;;;;;;;;;;5012331;28;20206;-69
2022/08/13 18:04:22;;;;;;;1999.90;999.90;;;;;;;;;;5011242;28;20694;-69
2022/08/13 18:07:07;;;;;;;1999.90;999.90;;;;;;;;;;5011843;28;20423;-71
2022/08/13 18:09:53;;;;;;;1999.90;999.90;;;;;;;;;;5011639;28;20712;-71
2022/08/13 18:12:40;;;;;;;1999.90;999.90;;;;;;;;;;5011188;28;20218;-71
2022/08/13 18:15:25;;;;;;;1999.90;999.90;;;;;;;;;;5012740;28;20215;-72
2022/08/13 18:18:10;;;;;;;1999.90;999.90;;;;;;;;;;5009949;28;20209;-71
2022/08/13 18:20:56;;;;;;;1999.90;999.90;;;;;;;;;;5012305;28;20206;-71
2022/08/13 18:23:43;;;;;;;1999.90;999.90;;;;;;;;;;4996761;28;20218;-72
2022/08/13 18:26:30;;;;;;;1999.90;999.90;;;;;;;;;;4992855;28;20246;-71
2022/08/13 18:29:15;;;;;;;1999.90;999.90;;;;;;;;;;4993060;28;20327;-72
2022/08/13 18:32:00;;;;;;;1999.90;999.90;;;;;;;;;;5003887;28;20693;-71
2022/08/13 18:34:45;;;;;;;1999.90;999.90;;;;;;;;;;5008607;28;20222;-71
2022/08/13 18:37:31;;;;;;;1999.90;999.90;;;;;;;;;;5014887;28;20602;-71
2022/08/13 18:40:19;;;;;;;1999.90;999.90;;;;;;;;;;5012004;28;20202;-72
2022/08/13 18:43:04;;;;;;;1999.90;999.90;;;;;;;;;;5018907;28;20408;-70
2022/08/13 18:45:50;;;;;;;1999.90;999.90;;;;;;;;;;5011780;28;20767;-73